Terminal Aerodrome Forecast
Issued by NWS

Home | Current Version | Previous Version | Text Only | Print | Product List | Glossary On
Versions: 1 2 3 4 5 6 7 8 9 10 11 12 13 14 15 16 17 18 19 20
000
FTAK31 PAFA 240005 CCA
TAFAMC
TAF COR
PAMC 240005Z 2400/2424 04004KT P6SM VCSH BKN010 OVC020
     FM240300 VRB03KT 4SM -RA BR BKN008 OVC015
     FM241600 00000KT 6SM -RA BR BKN004 OVC010
     FM242000 VRB03KT P6SM VCSH SCT015 BKN025 OVC080=

USA.gov is the U.S. government's official web portal to all federal, state and local government web resources and services.